createdAt,value
2019-02-22T00:01:39.316Z,72.40
2019-02-22T00:04:10.243Z,73.00
2019-02-22T00:06:43.479Z,72.40
2019-02-22T00:09:13.277Z,72.30
2019-02-22T00:11:43.713Z,71.80
2019-02-22T00:14:13.799Z,71.50
2019-02-22T00:16:43.940Z,71.80
2019-02-22T00:19:15.288Z,71.50
2019-02-22T00:21:45.365Z,71.30
2019-02-22T00:24:15.474Z,71.40
2019-02-22T00:26:45.545Z,71.50
2019-02-22T00:29:15.580Z,71.70
2019-02-22T00:31:45.659Z,71.80
2019-02-22T00:34:17.228Z,71.80
2019-02-22T00:36:47.431Z,71.70
2019-02-22T00:39:17.620Z,71.20
2019-02-22T00:41:50.688Z,71.80
2019-02-22T00:44:22.306Z,71.20
2019-02-22T00:46:52.422Z,72.20
2019-02-22T00:49:22.404Z,72.90
2019-02-22T00:51:52.491Z,72.90
2019-02-22T00:54:22.548Z,73.00
2019-02-22T00:56:54.328Z,72.40
2019-02-22T00:59:24.318Z,72.80
2019-02-22T01:01:54.389Z,72.80
2019-02-22T01:04:24.394Z,72.30
2019-02-22T01:06:57.519Z,72.70
2019-02-22T01:09:27.528Z,72.20
2019-02-22T01:11:57.530Z,71.70
2019-02-22T01:14:29.367Z,71.50
2019-02-22T01:16:59.474Z,72.00
2019-02-22T01:19:32.593Z,72.20
2019-02-22T01:22:02.676Z,72.30
2019-02-22T01:24:32.695Z,72.30
2019-02-22T01:27:02.824Z,70.90
2019-02-22T01:29:32.826Z,71.50
2019-02-22T01:32:06.864Z,71.40
2019-02-22T01:34:38.231Z,71.30
2019-02-22T01:37:08.284Z,71.70
2019-02-22T01:39:39.393Z,72.30
2019-02-22T01:42:13.442Z,72.40
2019-02-22T01:44:44.781Z,72.60
2019-02-22T01:47:15.971Z,73.40
2019-02-22T01:49:46.956Z,73.90
2019-02-22T01:52:22.748Z,74.80
2019-02-22T01:54:52.510Z,75.60
2019-02-22T01:57:22.593Z,75.30
2019-02-22T01:59:52.666Z,76.00
2019-02-22T02:02:24.221Z,75.90
2019-02-22T02:04:54.383Z,75.80
2019-02-22T02:07:27.235Z,76.20
2019-02-22T02:09:57.331Z,76.00
2019-02-22T02:12:28.712Z,76.50
2019-02-22T02:15:00.505Z,76.40
2019-02-22T02:17:32.125Z,77.00
2019-02-22T02:20:09.242Z,76.60
2019-02-22T02:22:40.083Z,76.90
2019-02-22T02:25:13.423Z,77.70
2019-02-22T02:27:47.500Z,77.80
2019-02-22T02:30:17.333Z,77.20
2019-02-22T02:32:47.393Z,77.20
2019-02-22T02:35:18.941Z,76.80
2019-02-22T02:37:49.006Z,77.80
2019-02-22T02:40:23.452Z,77.00
2019-02-22T02:42:54.650Z,76.90
2019-02-22T02:45:24.648Z,76.90
2019-02-22T02:47:56.628Z,75.50
2019-02-22T02:50:27.853Z,76.40
2019-02-22T02:52:57.925Z,76.40
2019-02-22T02:55:30.273Z,76.20
2019-02-22T02:58:00.427Z,77.20
2019-02-22T03:00:32.320Z,78.10
2019-02-22T03:03:08.059Z,78.80
2019-02-22T03:05:47.828Z,78.90
2019-02-22T03:08:17.969Z,79.40
2019-02-22T03:10:49.665Z,78.80
2019-02-22T03:13:19.804Z,80.30
2019-02-22T03:15:52.672Z,80.40
2019-02-22T03:18:22.754Z,81.00
2019-02-22T03:20:54.404Z,81.90
2019-02-22T03:23:25.510Z,82.10
2019-02-22T03:25:56.816Z,81.90
2019-02-22T03:28:29.813Z,82.10
2019-02-22T03:31:01.860Z,82.20
2019-02-22T03:33:33.537Z,82.00
2019-02-22T03:36:03.609Z,81.40
2019-02-22T03:38:35.472Z,82.00
2019-02-22T03:41:05.656Z,82.70
2019-02-22T03:43:35.807Z,83.10
2019-02-22T03:46:09.049Z,84.60
2019-02-22T03:48:39.125Z,85.10
2019-02-22T03:51:09.194Z,86.00
2019-02-22T03:53:46.610Z,85.30
2019-02-22T03:56:19.483Z,85.20
2019-02-22T03:58:49.483Z,84.90
2019-02-22T04:01:20.776Z,85.10
2019-02-22T04:03:50.912Z,85.10
2019-02-22T04:06:22.705Z,85.70
2019-02-22T04:08:52.775Z,85.80
2019-02-22T04:11:22.863Z,85.80
2019-02-22T04:13:52.960Z,86.10
2019-02-22T04:16:23.215Z,86.20
2019-02-22T04:18:54.433Z,86.60
2019-02-22T04:21:24.511Z,85.90
2019-02-22T04:23:55.789Z,85.70
2019-02-22T04:26:26.842Z,85.70
2019-02-22T04:28:58.608Z,85.90
2019-02-22T04:31:33.915Z,86.70
2019-02-22T04:34:00.475Z,86.30
2019-02-22T04:36:32.496Z,86.20
2019-02-22T04:39:04.676Z,85.70
2019-02-22T04:41:36.501Z,86.10
2019-02-22T04:44:09.857Z,86.10
2019-02-22T04:46:43.006Z,86.30
2019-02-22T04:49:13.271Z,86.20
2019-02-22T04:51:45.224Z,87.20
2019-02-22T04:54:16.942Z,87.00
2019-02-22T04:56:47.011Z,87.00
2019-02-22T04:59:18.566Z,87.50
2019-02-22T05:01:51.670Z,86.80
2019-02-22T05:04:24.189Z,87.40
2019-02-22T05:06:55.728Z,87.00
2019-02-22T05:09:26.964Z,87.10
2019-02-22T05:11:57.088Z,87.50
2019-02-22T05:14:27.106Z,88.00
2019-02-22T05:16:58.275Z,88.50
2019-02-22T05:19:31.462Z,88.30
2019-02-22T05:22:01.450Z,88.00
2019-02-22T05:24:32.749Z,87.90
2019-02-22T05:27:04.806Z,87.70
2019-02-22T05:29:34.922Z,87.90
2019-02-22T05:32:05.762Z,87.50
2019-02-22T05:34:35.905Z,87.20
2019-02-22T05:37:07.116Z,88.00
2019-02-22T05:39:38.298Z,87.90
2019-02-22T05:42:08.368Z,87.90
2019-02-22T05:44:40.209Z,88.40
2019-02-22T05:47:14.206Z,88.70
2019-02-22T05:49:44.296Z,88.60
2019-02-22T05:52:14.455Z,88.60
2019-02-22T05:54:45.752Z,88.80
2019-02-22T05:57:15.818Z,89.10
2019-02-22T05:59:47.689Z,88.80
2019-02-22T06:02:19.367Z,88.60
2019-02-22T06:04:49.526Z,88.70
2019-02-22T06:07:20.130Z,88.60
2019-02-22T06:09:50.128Z,88.50
2019-02-22T06:12:20.257Z,88.50
2019-02-22T06:14:50.278Z,88.80
2019-02-22T06:17:21.353Z,88.70
2019-02-22T06:19:51.334Z,88.80
2019-02-22T06:22:29.682Z,88.50
2019-02-22T06:24:57.536Z,88.80
2019-02-22T06:27:28.570Z,88.70
2019-02-22T06:30:03.392Z,88.40
2019-02-22T06:32:34.817Z,88.00
2019-02-22T06:35:05.086Z,87.40
2019-02-22T06:37:35.223Z,87.20
2019-02-22T06:40:05.934Z,86.80
2019-02-22T06:42:45.294Z,87.40
2019-02-22T06:45:17.045Z,87.50
2019-02-22T06:47:48.101Z,87.90
2019-02-22T06:50:19.927Z,88.30
2019-02-22T06:52:52.705Z,88.20
2019-02-22T06:55:23.640Z,88.60
2019-02-22T06:57:53.693Z,88.70
2019-02-22T07:00:24.881Z,88.40
2019-02-22T07:02:56.340Z,88.30
2019-02-22T07:05:27.809Z,88.20
2019-02-22T07:08:05.856Z,88.10
2019-02-22T07:10:54.921Z,88.00
2019-02-22T07:13:26.241Z,87.60
2019-02-22T07:15:59.306Z,87.50
2019-02-22T07:18:35.001Z,87.10
2019-02-22T07:21:05.125Z,87.50
2019-02-22T07:23:36.163Z,87.60
2019-02-22T07:26:09.072Z,88.00
2019-02-22T07:28:40.905Z,88.10
2019-02-22T07:31:11.004Z,87.90
2019-02-22T07:33:41.005Z,87.80
2019-02-22T07:36:11.195Z,88.20
2019-02-22T07:38:41.344Z,87.80
2019-02-22T07:41:12.628Z,88.00
2019-02-22T07:43:44.392Z,87.20
2019-02-22T07:46:14.481Z,86.90
2019-02-22T07:48:47.007Z,87.70
2019-02-22T07:51:18.732Z,87.70
2019-02-22T07:53:48.059Z,87.10
2019-02-22T07:56:19.366Z,85.90
2019-02-22T07:58:51.397Z,86.00
2019-02-22T08:01:26.906Z,85.60
2019-02-22T08:03:58.932Z,85.20
2019-02-22T08:06:29.028Z,85.10
2019-02-22T08:09:00.776Z,85.30
2019-02-22T08:11:38.134Z,86.10
2019-02-22T08:14:12.398Z,85.00
2019-02-22T08:16:42.548Z,84.70
2019-02-22T08:19:16.165Z,84.40
2019-02-22T08:21:47.082Z,84.10
2019-02-22T08:24:17.217Z,84.20
2019-02-22T08:26:48.928Z,84.20
2019-02-22T08:29:18.937Z,84.40
2019-02-22T08:31:50.722Z,84.40
2019-02-22T08:34:20.798Z,84.20
2019-02-22T08:36:55.530Z,84.10
2019-02-22T08:39:25.688Z,83.60
2019-02-22T08:41:57.465Z,83.50
2019-02-22T08:44:28.337Z,83.30
2019-02-22T08:46:58.438Z,83.50
2019-02-22T08:49:30.036Z,84.40
2019-02-22T08:52:04.214Z,84.40
2019-02-22T08:54:34.327Z,84.40
2019-02-22T08:57:04.413Z,83.90
2019-02-22T08:59:34.502Z,82.90
2019-02-22T09:02:04.592Z,82.60
2019-02-22T09:04:34.770Z,82.40
2019-02-22T09:07:04.791Z,82.00
2019-02-22T09:09:34.880Z,81.80
2019-02-22T09:12:04.947Z,81.10
2019-02-22T09:14:38.207Z,80.90
2019-02-22T09:17:08.320Z,81.40
2019-02-22T09:19:38.388Z,80.40
2019-02-22T09:22:08.506Z,80.50
2019-02-22T09:24:38.577Z,80.40
2019-02-22T09:27:08.669Z,80.30
2019-02-22T09:29:38.747Z,79.10
2019-02-22T09:32:08.861Z,77.40
2019-02-22T09:34:38.939Z,77.10
2019-02-22T09:37:09.018Z,77.10
2019-02-22T09:39:39.177Z,76.80
2019-02-22T09:42:09.258Z,76.60
2019-02-22T09:44:39.264Z,77.70
2019-02-22T09:47:09.375Z,79.60
2019-02-22T09:49:39.477Z,79.50
2019-02-22T09:52:09.637Z,80.00
2019-02-22T09:54:39.705Z,79.40
2019-02-22T09:57:09.812Z,79.50
2019-02-22T09:59:39.934Z,78.80
2019-02-22T10:02:10.044Z,78.50
2019-02-22T10:04:40.142Z,78.10
2019-02-22T10:07:10.324Z,79.10
2019-02-22T10:09:40.450Z,79.20
2019-02-22T10:12:10.676Z,79.20
2019-02-22T10:14:40.850Z,79.10
2019-02-22T10:17:10.935Z,79.50
2019-02-22T10:19:41.044Z,78.40
2019-02-22T10:22:11.225Z,79.50
2019-02-22T10:24:41.356Z,79.30
2019-02-22T10:27:12.236Z,79.20
2019-02-22T10:29:42.438Z,79.20
2019-02-22T10:32:12.478Z,79.30
2019-02-22T10:34:42.580Z,78.80
2019-02-22T10:37:12.713Z,78.30
2019-02-22T10:39:42.804Z,77.60
2019-02-22T10:42:12.878Z,78.50
2019-02-22T10:44:42.960Z,77.90
2019-02-22T10:47:13.056Z,77.40
2019-02-22T10:49:43.157Z,77.10
2019-02-22T10:52:13.239Z,76.50
2019-02-22T10:54:43.336Z,77.00
2019-02-22T10:57:13.484Z,76.80
2019-02-22T10:59:43.555Z,78.70
2019-02-22T11:02:13.655Z,78.30
2019-02-22T11:04:43.800Z,78.30
2019-02-22T11:07:13.946Z,78.70
2019-02-22T11:09:44.116Z,79.30
2019-02-22T11:12:14.195Z,79.00
2019-02-22T11:14:45.921Z,79.20
2019-02-22T11:17:16.159Z,77.60
2019-02-22T11:19:46.271Z,78.80
2019-02-22T11:22:16.365Z,77.40
2019-02-22T11:24:46.455Z,77.90
2019-02-22T11:27:16.603Z,77.30
2019-02-22T11:29:49.186Z,76.50
2019-02-22T11:32:18.411Z,74.80
2019-02-22T11:34:48.508Z,74.70
2019-02-22T11:37:18.618Z,74.40
2019-02-22T11:39:48.640Z,74.40
2019-02-22T11:42:20.539Z,74.10
2019-02-22T11:44:50.596Z,74.60
2019-02-22T11:47:20.700Z,75.10
2019-02-22T11:49:50.859Z,74.70
2019-02-22T11:52:20.889Z,75.30
2019-02-22T11:54:50.983Z,76.00
2019-02-22T11:57:22.639Z,77.30
2019-02-22T11:59:53.987Z,76.30
2019-02-22T12:02:25.717Z,77.60
2019-02-22T12:04:57.093Z,77.10
2019-02-22T12:07:27.173Z,76.90
2019-02-22T12:09:57.267Z,75.40
2019-02-22T12:12:28.825Z,76.20
2019-02-22T12:15:00.521Z,76.50
2019-02-22T12:17:32.312Z,76.00
2019-02-22T12:20:02.424Z,75.20
2019-02-22T12:22:33.768Z,75.20
2019-02-22T12:25:05.679Z,74.70
2019-02-22T12:27:35.856Z,75.10
2019-02-22T12:30:12.212Z,75.90
2019-02-22T12:32:42.301Z,75.60
2019-02-22T12:35:12.472Z,74.80
2019-02-22T12:37:42.552Z,74.10
2019-02-22T12:40:15.238Z,74.00
2019-02-22T12:42:48.602Z,74.40
2019-02-22T12:45:18.771Z,73.90
2019-02-22T12:47:48.884Z,72.20
2019-02-22T12:50:18.992Z,71.30
2019-02-22T12:52:50.877Z,69.70
2019-02-22T12:55:23.964Z,68.80
2019-02-22T12:57:54.144Z,67.80
2019-02-22T13:00:24.259Z,66.60
2019-02-22T13:03:01.997Z,67.40
2019-02-22T13:05:26.567Z,66.20
2019-02-22T13:07:56.728Z,65.10
2019-02-22T13:10:26.816Z,66.20
2019-02-22T13:12:56.963Z,66.10
2019-02-22T13:15:27.064Z,65.50
2019-02-22T13:17:57.169Z,66.80
2019-02-22T13:20:30.365Z,69.30
2019-02-22T13:23:02.930Z,68.80
2019-02-22T13:25:32.312Z,69.80
2019-02-22T13:28:02.458Z,69.50
2019-02-22T13:30:32.617Z,70.20
2019-02-22T13:33:02.757Z,68.60
2019-02-22T13:35:32.929Z,69.10
2019-02-22T13:38:02.972Z,70.00
2019-02-22T13:40:33.108Z,70.30
2019-02-22T13:43:05.300Z,69.30
2019-02-22T13:45:35.013Z,68.90
2019-02-22T13:48:05.246Z,68.10
2019-02-22T13:50:35.444Z,67.30
2019-02-22T13:53:05.636Z,67.10
2019-02-22T13:55:35.717Z,66.90
2019-02-22T13:58:05.858Z,67.90
2019-02-22T14:00:36.136Z,69.30
2019-02-22T14:03:06.418Z,68.70
2019-02-22T14:05:36.533Z,66.50
2019-02-22T14:08:06.707Z,65.20
2019-02-22T14:10:36.935Z,64.50
2019-02-22T14:13:10.530Z,63.60
2019-02-22T14:15:42.605Z,62.70
2019-02-22T14:18:13.545Z,63.10
2019-02-22T14:20:47.115Z,64.30
2019-02-22T14:23:20.983Z,63.70
2019-02-22T14:25:52.662Z,63.10
2019-02-22T14:28:22.829Z,63.20
2019-02-22T14:30:52.940Z,60.90
2019-02-22T14:33:26.324Z,61.20
2019-02-22T14:35:59.143Z,61.30
2019-02-22T14:38:30.246Z,61.90
2019-02-22T14:41:03.487Z,61.90
2019-02-22T14:43:35.986Z,62.80
2019-02-22T14:46:06.682Z,63.60
2019-02-22T14:48:38.036Z,64.20
2019-02-22T14:51:15.091Z,64.60
2019-02-22T14:53:46.417Z,65.50
2019-02-22T14:56:16.256Z,65.30
2019-02-22T14:58:47.598Z,66.00
2019-02-22T15:01:17.720Z,66.50
2019-02-22T15:03:49.060Z,66.30
2019-02-22T15:06:19.206Z,66.60
2019-02-22T15:08:50.320Z,69.10
2019-02-22T15:11:20.613Z,72.00
2019-02-22T15:13:50.688Z,71.10
2019-02-22T15:16:32.164Z,72.60
2019-02-22T15:19:02.228Z,74.40
2019-02-22T15:21:34.521Z,77.20
2019-02-22T15:24:10.423Z,78.60
2019-02-22T15:26:41.300Z,78.00
2019-02-22T15:29:13.264Z,78.10
2019-02-22T15:31:43.430Z,78.20
2019-02-22T15:34:13.553Z,78.10
2019-02-22T15:36:43.768Z,77.80
2019-02-22T15:39:21.197Z,77.80
2019-02-22T15:41:51.335Z,77.20
2019-02-22T15:44:24.307Z,77.10
2019-02-22T15:46:57.496Z,76.80
2019-02-22T15:49:28.790Z,76.50
2019-02-22T15:51:58.899Z,77.10
2019-02-22T15:54:33.509Z,76.70
2019-02-22T15:57:03.655Z,77.00
2019-02-22T15:59:34.789Z,76.40
2019-02-22T16:02:05.428Z,77.20
2019-02-22T16:04:41.996Z,77.10
2019-02-22T16:07:12.145Z,76.80
2019-02-22T16:09:42.269Z,77.80
2019-02-22T16:12:13.626Z,77.90
2019-02-22T16:14:45.059Z,77.70
2019-02-22T16:17:15.276Z,77.60
2019-02-22T16:19:47.139Z,78.00
2019-02-22T16:22:17.426Z,78.40
2019-02-22T16:24:47.758Z,78.70
2019-02-22T16:27:17.892Z,79.40
2019-02-22T16:29:49.313Z,79.30
2019-02-22T16:32:19.459Z,79.70
2019-02-22T16:34:49.685Z,80.10
2019-02-22T16:37:21.619Z,81.50
2019-02-22T16:39:54.165Z,80.00
2019-02-22T16:42:23.558Z,80.30
2019-02-22T16:44:53.843Z,81.60
2019-02-22T16:47:26.435Z,80.80
2019-02-22T16:49:55.871Z,81.10
2019-02-22T16:52:27.951Z,81.40
2019-02-22T16:54:57.843Z,81.80
2019-02-22T16:57:28.028Z,82.40
2019-02-22T16:59:58.165Z,82.80
2019-02-22T17:02:32.721Z,82.20
2019-02-22T17:05:02.929Z,82.10
2019-02-22T17:07:36.897Z,81.70
2019-02-22T17:10:08.662Z,82.00
2019-02-22T17:12:38.816Z,82.00
2019-02-22T17:15:10.738Z,81.80
2019-02-22T17:17:45.049Z,83.20
2019-02-22T17:20:15.537Z,83.20
2019-02-22T17:22:45.660Z,83.30
2019-02-22T17:25:16.221Z,83.60
2019-02-22T17:27:46.444Z,84.20
2019-02-22T17:30:16.635Z,83.20
2019-02-22T17:32:46.839Z,82.20
2019-02-22T17:35:17.058Z,82.30
2019-02-22T17:37:47.293Z,81.40
2019-02-22T17:40:17.446Z,80.90
2019-02-22T17:42:47.658Z,80.60
2019-02-22T17:45:22.206Z,80.40
2019-02-22T17:47:52.401Z,80.50
2019-02-22T17:50:28.041Z,80.60
2019-02-22T17:52:57.492Z,80.60
2019-02-22T17:55:27.686Z,80.30
2019-02-22T17:57:57.846Z,80.20
2019-02-22T18:00:29.759Z,79.80
2019-02-22T18:03:02.806Z,79.60
2019-02-22T18:05:33.586Z,80.00
2019-02-22T18:08:03.821Z,80.00
2019-02-22T18:10:34.056Z,79.80
2019-02-22T18:13:04.197Z,79.80
2019-02-22T18:15:34.417Z,79.20
2019-02-22T18:18:05.669Z,79.30
2019-02-22T18:20:35.832Z,79.00
2019-02-22T18:23:06.065Z,79.20
2019-02-22T18:25:36.295Z,79.60
2019-02-22T18:28:07.079Z,79.40
2019-02-22T18:30:37.285Z,79.20
2019-02-22T18:33:07.515Z,78.80
2019-02-22T18:35:37.787Z,78.50
2019-02-22T18:38:07.957Z,78.50
2019-02-22T18:40:38.598Z,78.60
2019-02-22T18:43:08.742Z,78.40
2019-02-22T18:45:39.322Z,79.20
2019-02-22T18:48:11.941Z,79.40
2019-02-22T18:50:42.676Z,79.20
2019-02-22T18:53:13.887Z,79.60
2019-02-22T18:55:50.252Z,79.50
2019-02-22T18:58:17.051Z,79.60
2019-02-22T19:00:51.168Z,79.60
2019-02-22T19:03:22.464Z,79.10
2019-02-22T19:05:54.652Z,79.40
2019-02-22T19:08:32.019Z,80.40
2019-02-22T19:10:56.628Z,79.80
2019-02-22T19:13:26.881Z,79.30
2019-02-22T19:15:57.525Z,79.10
2019-02-22T19:18:27.782Z,79.50
2019-02-22T19:20:59.134Z,79.70
2019-02-22T19:23:31.039Z,79.20
2019-02-22T19:26:02.788Z,79.10
2019-02-22T19:28:33.643Z,78.90
2019-02-22T19:31:05.742Z,78.90
2019-02-22T19:33:36.138Z,78.40
2019-02-22T19:36:08.693Z,78.60
2019-02-22T19:38:38.992Z,78.60
2019-02-22T19:41:09.429Z,78.10
2019-02-22T19:43:42.986Z,77.50
2019-02-22T19:46:15.489Z,77.00
2019-02-22T19:48:45.806Z,76.90
2019-02-22T19:51:16.441Z,76.30
2019-02-22T19:53:47.060Z,75.90
2019-02-22T19:56:17.667Z,75.70
2019-02-22T19:58:48.258Z,75.70
2019-02-22T20:01:18.650Z,75.30
2019-02-22T20:03:49.458Z,74.70
2019-02-22T20:06:20.013Z,75.00
2019-02-22T20:08:50.698Z,74.20
2019-02-22T20:11:21.092Z,73.00
2019-02-22T20:13:52.404Z,73.80
2019-02-22T20:16:22.667Z,73.10
2019-02-22T20:18:55.017Z,72.70
2019-02-22T20:21:26.824Z,73.10
2019-02-22T20:23:59.574Z,72.20
2019-02-22T20:26:31.872Z,71.80
2019-02-22T20:29:02.593Z,71.50
2019-02-22T20:31:34.379Z,72.30
2019-02-22T20:34:07.104Z,72.10
2019-02-22T20:36:37.842Z,72.90
2019-02-22T20:39:10.181Z,73.00
2019-02-22T20:41:41.735Z,73.10
2019-02-22T20:44:12.151Z,72.80
2019-02-22T20:46:43.666Z,71.90
2019-02-22T20:49:15.444Z,72.20
2019-02-22T20:51:46.362Z,70.90
2019-02-22T20:54:16.621Z,70.50
2019-02-22T20:56:46.930Z,70.80
2019-02-22T20:59:17.207Z,70.90
2019-02-22T21:01:47.446Z,71.10
2019-02-22T21:04:17.933Z,71.20
2019-02-22T21:06:49.437Z,70.70
2019-02-22T21:09:21.692Z,70.70
2019-02-22T21:11:53.732Z,69.70
2019-02-22T21:14:24.922Z,70.00
2019-02-22T21:16:56.637Z,69.80
2019-02-22T21:19:30.494Z,69.50
2019-02-22T21:22:04.116Z,69.70
2019-02-22T21:24:35.779Z,68.80
2019-02-22T21:27:06.023Z,68.40
2019-02-22T21:29:38.969Z,68.90
2019-02-22T21:32:09.172Z,69.00
2019-02-22T21:34:39.498Z,68.40
2019-02-22T21:37:09.795Z,67.70
2019-02-22T21:39:40.111Z,67.60
2019-02-22T21:42:19.860Z,67.90
2019-02-22T21:44:42.586Z,68.00
2019-02-22T21:47:12.804Z,67.60
2019-02-22T21:49:42.992Z,68.20
2019-02-22T21:52:16.420Z,68.20
2019-02-22T21:54:46.644Z,68.70
2019-02-22T21:57:22.547Z,69.10
2019-02-22T21:59:53.373Z,69.30
2019-02-22T22:02:22.798Z,69.30
2019-02-22T22:04:52.987Z,69.50
2019-02-22T22:07:23.229Z,70.50
2019-02-22T22:09:57.621Z,70.50
2019-02-22T22:12:29.924Z,69.90
2019-02-22T22:15:00.033Z,69.90
2019-02-22T22:17:30.220Z,69.20
2019-02-22T22:20:00.430Z,69.30
2019-02-22T22:22:30.715Z,69.80
2019-02-22T22:25:00.948Z,69.30
2019-02-22T22:27:32.260Z,68.60
2019-02-22T22:30:02.446Z,68.20
2019-02-22T22:32:36.948Z,67.90
2019-02-22T22:35:11.281Z,68.10
2019-02-22T22:37:42.684Z,67.00
2019-02-22T22:40:19.831Z,67.50
2019-02-22T22:42:51.581Z,66.90
2019-02-22T22:45:23.738Z,66.70
2019-02-22T22:47:53.662Z,67.00
2019-02-22T22:50:23.772Z,66.80
2019-02-22T22:52:54.022Z,67.00
2019-02-22T22:55:24.162Z,66.50
2019-02-22T22:57:54.289Z,66.30
2019-02-22T23:00:59.156Z,65.70
2019-02-22T23:03:30.520Z,67.10
2019-02-22T23:06:00.814Z,66.50
2019-02-22T23:08:32.545Z,65.90
2019-02-22T23:11:02.638Z,66.70
2019-02-22T23:13:36.167Z,67.30
2019-02-22T23:16:07.273Z,67.60
2019-02-22T23:18:37.371Z,67.80
2019-02-22T23:21:08.114Z,67.80
2019-02-22T23:23:38.252Z,68.20
2019-02-22T23:26:09.634Z,68.30
2019-02-22T23:28:39.799Z,67.90
2019-02-22T23:31:13.695Z,68.00
2019-02-22T23:33:43.790Z,68.20
2019-02-22T23:36:13.881Z,68.40
2019-02-22T23:38:43.999Z,68.60
2019-02-22T23:41:16.508Z,68.60
2019-02-22T23:43:48.697Z,69.20
2019-02-22T23:46:18.833Z,69.40
2019-02-22T23:48:48.930Z,69.70
2019-02-22T23:51:19.043Z,70.40
2019-02-22T23:53:49.231Z,71.00
2019-02-22T23:56:19.328Z,71.10
2019-02-22T23:58:53.227Z,71.30
